createdAt,value
2018-09-21T00:00:29.398Z,0.00
2018-09-21T00:01:29.401Z,0.00
2018-09-21T00:02:29.394Z,0.00
2018-09-21T00:03:29.390Z,0.00
2018-09-21T00:04:29.388Z,0.00
2018-09-21T00:05:29.379Z,0.00
2018-09-21T00:06:29.378Z,0.00
2018-09-21T00:07:29.372Z,0.00
2018-09-21T00:08:29.371Z,0.00
2018-09-21T00:09:29.372Z,0.00
2018-09-21T00:10:29.365Z,0.00
2018-09-21T00:11:29.363Z,0.00
2018-09-21T00:12:29.359Z,0.00
2018-09-21T00:13:29.359Z,0.00
2018-09-21T00:14:29.354Z,0.00
2018-09-21T00:15:29.344Z,0.00
2018-09-21T00:16:29.344Z,0.00
2018-09-21T00:17:29.344Z,0.00
2018-09-21T00:18:29.338Z,0.00
2018-09-21T00:19:29.333Z,0.00
2018-09-21T00:20:29.324Z,0.00
2018-09-21T00:21:29.322Z,0.00
2018-09-21T00:22:29.318Z,0.00
2018-09-21T00:23:29.318Z,0.00
2018-09-21T00:24:29.312Z,0.00
2018-09-21T00:25:29.309Z,0.00
2018-09-21T00:26:29.306Z,0.00
2018-09-21T00:27:29.299Z,0.00
2018-09-21T00:28:29.298Z,0.00
2018-09-21T00:29:29.292Z,0.00
2018-09-21T00:30:29.294Z,0.00
2018-09-21T00:31:29.289Z,0.00
2018-09-21T00:32:29.280Z,0.00
2018-09-21T00:33:29.278Z,0.00
2018-09-21T00:34:29.274Z,0.00
2018-09-21T00:35:29.271Z,0.00
2018-09-21T00:36:29.270Z,0.00
2018-09-21T00:37:29.271Z,0.00
2018-09-21T00:38:29.262Z,0.00
2018-09-21T00:39:29.254Z,0.00
2018-09-21T00:40:29.256Z,0.00
2018-09-21T00:41:29.247Z,0.00
2018-09-21T00:42:29.245Z,0.00
2018-09-21T00:43:29.239Z,0.00
2018-09-21T00:44:29.239Z,0.00
2018-09-21T00:45:29.234Z,0.00
2018-09-21T00:46:29.232Z,0.00
2018-09-21T00:47:29.227Z,0.00
2018-09-21T00:48:29.220Z,0.00
2018-09-21T00:49:29.218Z,0.00
2018-09-21T00:50:29.211Z,0.00
2018-09-21T00:51:29.218Z,0.00
2018-09-21T00:52:29.208Z,0.00
2018-09-21T00:53:29.199Z,0.00
2018-09-21T00:54:29.198Z,0.00
2018-09-21T00:55:29.189Z,0.00
2018-09-21T00:56:29.193Z,0.00
2018-09-21T00:57:29.197Z,0.00
2018-09-21T00:58:29.183Z,0.00
2018-09-21T00:59:29.178Z,0.00
2018-09-21T01:00:29.173Z,0.00
2018-09-21T01:01:29.173Z,0.00
2018-09-21T01:02:29.166Z,0.00
2018-09-21T01:03:29.159Z,0.00
2018-09-21T01:04:29.158Z,0.00
2018-09-21T01:05:29.154Z,0.00
2018-09-21T01:06:29.148Z,0.00
2018-09-21T01:07:29.152Z,0.00
2018-09-21T01:08:29.142Z,0.00
2018-09-21T01:09:29.199Z,0.00
2018-09-21T01:10:29.139Z,0.00
2018-09-21T01:11:29.133Z,0.00
2018-09-21T01:12:29.130Z,0.00
2018-09-21T01:13:29.127Z,0.00
2018-09-21T01:14:29.130Z,0.00
2018-09-21T01:15:29.122Z,0.00
2018-09-21T01:16:29.112Z,0.00
2018-09-21T01:17:29.106Z,0.00
2018-09-21T01:18:29.105Z,0.00
2018-09-21T01:19:29.099Z,0.00
2018-09-21T01:20:29.107Z,0.00
2018-09-21T01:21:29.103Z,0.00
2018-09-21T01:22:29.090Z,0.00
2018-09-21T01:23:29.088Z,0.00
2018-09-21T01:24:29.078Z,0.00
2018-09-21T01:25:29.077Z,0.00
2018-09-21T01:26:29.078Z,0.00
2018-09-21T01:27:29.065Z,0.00
2018-09-21T01:28:29.067Z,0.00
2018-09-21T01:29:29.060Z,0.00
2018-09-21T01:30:29.060Z,0.00
2018-09-21T01:31:29.051Z,0.00
2018-09-21T01:32:29.047Z,0.00
2018-09-21T01:33:29.054Z,0.00
2018-09-21T01:34:29.047Z,0.00
2018-09-21T01:35:29.038Z,0.00
2018-09-21T01:36:29.029Z,0.00
2018-09-21T01:37:29.028Z,0.00
2018-09-21T01:38:29.023Z,0.00
2018-09-21T01:39:29.019Z,0.00
2018-09-21T01:40:29.019Z,0.00
2018-09-21T01:41:29.015Z,0.00
2018-09-21T01:42:29.012Z,0.00
2018-09-21T01:43:29.009Z,0.00
2018-09-21T01:44:29.003Z,0.00
2018-09-21T01:45:28.999Z,0.00
2018-09-21T01:46:28.993Z,0.00
2018-09-21T01:47:28.986Z,0.00
2018-09-21T01:48:28.983Z,0.00
2018-09-21T01:49:28.994Z,0.00
2018-09-21T01:50:28.994Z,0.00
2018-09-21T01:51:28.974Z,0.00
2018-09-21T01:52:28.968Z,0.00
2018-09-21T01:53:28.964Z,0.00
2018-09-21T01:54:28.965Z,0.00
2018-09-21T01:55:28.953Z,0.00
2018-09-21T01:56:28.952Z,0.00
2018-09-21T01:57:28.951Z,0.00
2018-09-21T01:58:28.944Z,0.00
2018-09-21T01:59:28.943Z,0.00
2018-09-21T02:00:28.936Z,0.00
2018-09-21T02:01:28.931Z,0.00
2018-09-21T02:02:28.929Z,0.00
2018-09-21T02:03:28.924Z,0.00
2018-09-21T02:04:28.925Z,0.00
2018-09-21T02:05:28.920Z,0.00
2018-09-21T02:06:28.917Z,0.00
2018-09-21T02:07:28.905Z,0.00
2018-09-21T02:08:28.904Z,0.00
2018-09-21T02:09:28.914Z,0.00
2018-09-21T02:10:28.900Z,0.00
2018-09-21T02:11:28.903Z,0.00
2018-09-21T02:12:28.892Z,0.00
2018-09-21T02:13:28.888Z,0.00
2018-09-21T02:14:28.879Z,0.00
2018-09-21T02:15:28.872Z,0.00
2018-09-21T02:16:28.873Z,0.00
2018-09-21T02:17:28.885Z,0.00
2018-09-21T02:18:28.865Z,0.00
2018-09-21T02:19:28.869Z,0.00
2018-09-21T02:20:28.886Z,0.00
2018-09-21T02:21:28.850Z,0.00
2018-09-21T02:22:28.844Z,0.00
2018-09-21T02:23:28.843Z,0.00
2018-09-21T02:24:28.840Z,0.00
2018-09-21T02:25:28.833Z,0.00
2018-09-21T02:26:28.836Z,0.00
2018-09-21T02:27:28.825Z,0.00
2018-09-21T02:28:28.824Z,0.00
2018-09-21T02:29:28.820Z,0.00
2018-09-21T02:30:28.814Z,0.00
2018-09-21T02:31:28.819Z,0.00
2018-09-21T02:32:28.809Z,0.00
2018-09-21T02:33:28.811Z,0.00
2018-09-21T02:34:28.799Z,0.00
2018-09-21T02:35:28.792Z,0.00
2018-09-21T02:36:28.792Z,0.00
2018-09-21T02:37:28.786Z,0.00
2018-09-21T02:38:28.779Z,0.00
2018-09-21T02:39:28.779Z,0.00
2018-09-21T02:40:28.771Z,0.00
2018-09-21T02:41:28.865Z,0.00
2018-09-21T02:42:28.769Z,0.00
2018-09-21T02:43:28.763Z,0.00
2018-09-21T02:44:28.761Z,0.00
2018-09-21T02:45:28.756Z,0.00
2018-09-21T02:46:28.759Z,0.00
2018-09-21T02:47:28.745Z,0.00
2018-09-21T02:48:28.743Z,0.00
2018-09-21T02:49:28.737Z,0.00
2018-09-21T02:50:28.734Z,0.00
2018-09-21T02:51:28.731Z,0.00
2018-09-21T02:52:28.721Z,0.00
2018-09-21T02:53:28.722Z,0.00
2018-09-21T02:54:28.715Z,0.00
2018-09-21T02:55:28.715Z,0.00
2018-09-21T02:56:28.706Z,0.00
2018-09-21T02:57:28.702Z,0.00
2018-09-21T02:58:28.705Z,0.00
2018-09-21T02:59:28.694Z,0.00
2018-09-21T03:00:28.770Z,0.00
2018-09-21T03:01:28.687Z,0.00
2018-09-21T03:02:28.684Z,0.00
2018-09-21T03:03:28.682Z,0.00
2018-09-21T03:04:28.673Z,0.00
2018-09-21T03:05:28.679Z,0.00
2018-09-21T03:06:28.670Z,0.00
2018-09-21T03:07:28.666Z,0.00
2018-09-21T03:08:28.664Z,0.00
2018-09-21T03:09:28.657Z,0.00
2018-09-21T03:10:28.654Z,0.00
2018-09-21T03:11:28.644Z,0.00
2018-09-21T03:12:28.639Z,0.00
2018-09-21T03:13:28.635Z,0.00
2018-09-21T03:14:28.634Z,0.00
2018-09-21T03:15:28.630Z,0.00
2018-09-21T03:16:28.624Z,0.00
2018-09-21T03:17:28.623Z,0.00
2018-09-21T03:18:28.621Z,0.00
2018-09-21T03:19:28.619Z,0.00
2018-09-21T03:20:28.606Z,0.00
2018-09-21T03:21:28.609Z,0.00
2018-09-21T03:22:28.614Z,0.00
2018-09-21T03:23:28.612Z,0.00
2018-09-21T03:24:28.597Z,0.00
2018-09-21T03:25:28.596Z,0.00
2018-09-21T03:26:28.590Z,0.00
2018-09-21T03:27:28.580Z,0.00
2018-09-21T03:28:28.576Z,0.00
2018-09-21T03:29:28.580Z,0.00
2018-09-21T03:30:28.574Z,0.00
2018-09-21T03:31:28.563Z,0.00
2018-09-21T03:32:28.566Z,0.00
2018-09-21T03:33:28.565Z,0.00
2018-09-21T03:34:28.553Z,0.00
2018-09-21T03:35:28.549Z,0.00
2018-09-21T03:36:28.565Z,0.00
2018-09-21T03:37:28.548Z,0.00
2018-09-21T03:38:28.545Z,0.00
2018-09-21T03:39:28.531Z,0.00
2018-09-21T03:40:28.530Z,0.00
2018-09-21T03:41:28.522Z,0.00
2018-09-21T03:42:28.528Z,0.00
2018-09-21T03:43:28.544Z,0.00
2018-09-21T03:44:28.520Z,0.00
2018-09-21T03:45:28.516Z,0.00
2018-09-21T03:46:28.509Z,0.00
2018-09-21T03:47:28.509Z,0.00
2018-09-21T03:48:28.494Z,0.00
2018-09-21T03:49:28.494Z,0.00
2018-09-21T03:50:28.487Z,0.00
2018-09-21T03:51:28.482Z,0.00
2018-09-21T03:52:28.484Z,0.00
2018-09-21T03:53:28.474Z,0.00
2018-09-21T03:54:28.471Z,0.00
2018-09-21T03:55:28.466Z,0.00
2018-09-21T03:56:28.471Z,0.00
2018-09-21T03:57:28.469Z,0.00
2018-09-21T03:58:56.454Z,0.00
2018-09-21T03:59:28.454Z,0.00
2018-09-21T04:00:28.444Z,0.00
2018-09-21T04:01:28.449Z,0.00
2018-09-21T04:02:28.452Z,0.00
2018-09-21T04:03:28.434Z,0.00
2018-09-21T04:04:28.434Z,0.00
2018-09-21T04:05:28.435Z,0.00
2018-09-21T04:06:28.426Z,0.00
2018-09-21T04:07:28.429Z,0.00
2018-09-21T04:08:28.414Z,0.00
2018-09-21T04:09:28.411Z,0.00
2018-09-21T04:10:28.410Z,0.00
2018-09-21T04:11:28.404Z,0.00
2018-09-21T04:12:28.400Z,0.00
2018-09-21T04:13:28.395Z,0.00
2018-09-21T04:14:28.392Z,0.00
2018-09-21T04:15:28.384Z,0.00
2018-09-21T04:16:28.384Z,0.00
2018-09-21T04:17:28.376Z,0.00
2018-09-21T04:18:28.379Z,0.00
2018-09-21T04:19:28.375Z,0.00
2018-09-21T04:20:28.369Z,0.00
2018-09-21T04:21:28.364Z,0.00
2018-09-21T04:22:28.361Z,0.00
2018-09-21T04:23:28.363Z,0.00
2018-09-21T04:24:28.350Z,0.00
2018-09-21T04:25:28.347Z,0.00
2018-09-21T04:26:28.349Z,0.00
2018-09-21T04:27:28.342Z,0.00
2018-09-21T04:28:28.343Z,0.00
2018-09-21T04:29:28.330Z,0.00
2018-09-21T04:30:28.338Z,0.00
2018-09-21T04:31:28.327Z,0.00
2018-09-21T04:32:28.318Z,0.00
2018-09-21T04:33:28.314Z,0.00
2018-09-21T04:34:28.315Z,0.00
2018-09-21T04:35:28.311Z,0.00
2018-09-21T04:36:28.302Z,0.00
2018-09-21T04:37:28.304Z,0.00
2018-09-21T04:38:28.299Z,0.00
2018-09-21T04:39:28.291Z,0.00
2018-09-21T04:40:28.291Z,0.00
2018-09-21T04:41:28.287Z,0.00
2018-09-21T04:42:28.279Z,0.00
2018-09-21T04:43:28.279Z,0.00
2018-09-21T04:44:28.271Z,0.00
2018-09-21T04:45:28.272Z,0.00
2018-09-21T04:46:28.263Z,0.00
2018-09-21T04:47:28.264Z,0.00
2018-09-21T04:48:28.265Z,0.00
2018-09-21T04:49:28.264Z,0.00
2018-09-21T04:50:28.258Z,0.00
2018-09-21T04:51:28.243Z,0.00
2018-09-21T04:52:28.260Z,0.00
2018-09-21T04:53:28.237Z,0.00
2018-09-21T04:54:28.241Z,0.00
2018-09-21T04:55:28.235Z,0.00
2018-09-21T04:56:28.226Z,0.00
2018-09-21T04:57:28.227Z,0.00
2018-09-21T04:58:28.220Z,0.00
2018-09-21T04:59:28.220Z,0.00
2018-09-21T05:00:28.209Z,0.00
2018-09-21T05:01:28.209Z,0.00
2018-09-21T05:02:28.203Z,0.00
2018-09-21T05:03:28.197Z,0.00
2018-09-21T05:04:28.194Z,0.00
2018-09-21T05:05:28.193Z,0.00
2018-09-21T05:06:28.192Z,5.63
2018-09-21T05:07:28.183Z,5.63
2018-09-21T05:08:28.182Z,5.63
2018-09-21T05:09:28.200Z,5.63
2018-09-21T05:10:28.179Z,5.63
2018-09-21T05:11:28.175Z,5.63
2018-09-21T05:12:28.174Z,5.63
2018-09-21T05:13:28.170Z,5.63
2018-09-21T05:14:28.170Z,5.63
2018-09-21T05:15:28.156Z,5.63
2018-09-21T05:16:28.154Z,11.25
2018-09-21T05:17:28.154Z,11.25
2018-09-21T05:18:28.146Z,11.25
2018-09-21T05:19:28.146Z,11.25
2018-09-21T05:20:28.136Z,11.25
2018-09-21T05:21:28.138Z,16.88
2018-09-21T05:22:28.131Z,16.88
2018-09-21T05:23:28.131Z,22.50
2018-09-21T05:24:28.128Z,22.50
2018-09-21T05:25:28.120Z,28.13
2018-09-21T05:26:28.121Z,28.13
2018-09-21T05:27:28.132Z,28.13
2018-09-21T05:28:28.110Z,33.75
2018-09-21T05:29:28.105Z,33.75
2018-09-21T05:30:28.108Z,39.38
2018-09-21T05:31:28.107Z,39.38
2018-09-21T05:32:28.097Z,45.00
2018-09-21T05:33:28.097Z,50.63
2018-09-21T05:34:28.156Z,50.63
2018-09-21T05:35:28.085Z,56.25
2018-09-21T05:36:28.081Z,56.25
2018-09-21T05:37:28.077Z,56.25
2018-09-21T05:38:28.075Z,56.25
2018-09-21T05:39:28.091Z,56.25
2018-09-21T05:40:28.074Z,56.25
2018-09-21T05:41:28.063Z,56.25
2018-09-21T05:42:28.062Z,56.25
2018-09-21T05:43:28.055Z,50.63
2018-09-21T05:44:28.052Z,50.63
2018-09-21T05:45:28.051Z,50.63
2018-09-21T05:46:28.051Z,50.63
2018-09-21T05:47:28.042Z,56.25
2018-09-21T05:48:28.040Z,61.88
2018-09-21T05:49:28.035Z,67.50
2018-09-21T05:50:28.032Z,67.50
2018-09-21T05:51:28.036Z,67.50
2018-09-21T05:52:28.030Z,78.75
2018-09-21T05:53:28.025Z,90.00
2018-09-21T05:54:28.017Z,95.63
2018-09-21T05:55:28.014Z,101.25
2018-09-21T05:56:28.013Z,101.25
2018-09-21T05:57:28.008Z,101.25
2018-09-21T05:58:28.006Z,101.25
2018-09-21T05:59:28.011Z,95.63
2018-09-21T06:00:28.003Z,90.00
2018-09-21T06:01:27.998Z,90.00
2018-09-21T06:02:27.997Z,90.00
2018-09-21T06:03:27.996Z,95.63
2018-09-21T06:04:27.991Z,101.25
2018-09-21T06:05:27.985Z,101.25
2018-09-21T06:06:27.980Z,101.25
2018-09-21T06:07:27.975Z,95.63
2018-09-21T06:08:27.970Z,90.00
2018-09-21T06:09:27.968Z,84.38
2018-09-21T06:10:27.970Z,84.38
2018-09-21T06:11:27.965Z,84.38
2018-09-21T06:12:27.968Z,90.00
2018-09-21T06:13:27.975Z,101.25
2018-09-21T06:14:27.957Z,118.13
2018-09-21T06:15:27.951Z,129.38
2018-09-21T06:16:27.947Z,140.63
2018-09-21T06:17:27.942Z,151.88
2018-09-21T06:18:27.941Z,163.13
2018-09-21T06:19:28.006Z,174.38
2018-09-21T06:20:27.939Z,185.63
2018-09-21T06:21:27.941Z,196.88
2018-09-21T06:22:27.930Z,208.13
2018-09-21T06:23:27.932Z,219.38
2018-09-21T06:24:27.922Z,225.00
2018-09-21T06:25:27.934Z,236.25
2018-09-21T06:26:27.914Z,258.75
2018-09-21T06:27:27.916Z,270.00
2018-09-21T06:28:27.908Z,286.88
2018-09-21T06:29:27.909Z,309.38
2018-09-21T06:30:27.908Z,320.63
2018-09-21T06:31:27.903Z,331.88
2018-09-21T06:32:27.900Z,343.13
2018-09-21T06:33:27.897Z,354.38
2018-09-21T06:34:27.896Z,354.38
2018-09-21T06:35:27.894Z,371.25
2018-09-21T06:36:27.889Z,382.50
2018-09-21T06:37:27.885Z,393.75
2018-09-21T06:38:27.881Z,399.38
2018-09-21T06:39:27.882Z,399.38
2018-09-21T06:40:27.880Z,388.13
2018-09-21T06:41:27.874Z,371.25
2018-09-21T06:42:27.936Z,360.00
2018-09-21T06:43:27.872Z,354.38
2018-09-21T06:44:27.925Z,354.38
2018-09-21T06:45:27.861Z,365.63
2018-09-21T06:46:27.861Z,371.25
2018-09-21T06:47:27.854Z,382.50
2018-09-21T06:48:27.853Z,382.50
2018-09-21T06:49:27.851Z,376.88
2018-09-21T06:50:27.846Z,371.25
2018-09-21T06:51:27.844Z,365.63
2018-09-21T06:52:27.842Z,360.00
2018-09-21T06:53:27.843Z,348.75
2018-09-21T06:54:27.836Z,360.00
2018-09-21T06:55:27.837Z,382.50
2018-09-21T06:56:27.836Z,393.75
2018-09-21T06:57:27.829Z,393.75
2018-09-21T06:58:27.827Z,388.13
2018-09-21T06:59:27.829Z,371.25
2018-09-21T07:00:27.817Z,354.38
2018-09-21T07:01:27.944Z,331.88
2018-09-21T07:02:27.826Z,303.75
2018-09-21T07:03:27.811Z,292.50
2018-09-21T07:04:27.813Z,303.75
2018-09-21T07:05:28.559Z,326.25
2018-09-21T07:06:27.813Z,360.00
2018-09-21T07:07:27.800Z,382.50
2018-09-21T07:08:27.799Z,405.00
2018-09-21T07:09:27.799Z,416.25
2018-09-21T07:10:27.796Z,433.13
2018-09-21T07:11:27.789Z,427.50
2018-09-21T07:12:27.793Z,393.75
2018-09-21T07:13:27.784Z,354.38
2018-09-21T07:14:27.784Z,303.75
2018-09-21T07:15:27.784Z,264.38
2018-09-21T07:16:27.775Z,230.63
2018-09-21T07:17:27.779Z,213.75
2018-09-21T07:18:27.773Z,196.88
2018-09-21T07:19:27.768Z,185.63
2018-09-21T07:20:27.767Z,174.38
2018-09-21T07:21:27.765Z,174.38
2018-09-21T07:22:27.762Z,180.00
2018-09-21T07:23:27.763Z,185.63
2018-09-21T07:24:27.757Z,196.88
2018-09-21T07:25:27.758Z,208.13
2018-09-21T07:26:27.760Z,213.75
2018-09-21T07:27:27.750Z,213.75
2018-09-21T07:28:27.750Z,219.38
2018-09-21T07:29:27.745Z,225.00
2018-09-21T07:30:27.744Z,241.88
2018-09-21T07:31:27.746Z,258.75
2018-09-21T07:32:27.738Z,275.63
2018-09-21T07:33:27.733Z,292.50
2018-09-21T07:34:27.733Z,298.13
2018-09-21T07:35:27.727Z,286.88
2018-09-21T07:36:27.728Z,286.88
2018-09-21T07:37:27.790Z,292.50
2018-09-21T07:38:27.722Z,315.00
2018-09-21T07:39:27.720Z,348.75
2018-09-21T07:40:27.715Z,382.50
2018-09-21T07:41:27.709Z,410.63
2018-09-21T07:42:27.708Z,450.00
2018-09-21T07:43:27.710Z,495.00
2018-09-21T07:44:27.715Z,534.38
2018-09-21T07:45:27.703Z,556.88
2018-09-21T07:46:27.702Z,545.63
2018-09-21T07:47:27.696Z,511.88
2018-09-21T07:48:27.690Z,450.00
2018-09-21T07:49:27.688Z,382.50
2018-09-21T07:50:27.758Z,315.00
2018-09-21T07:51:27.688Z,292.50
2018-09-21T07:52:27.683Z,315.00
2018-09-21T07:53:27.687Z,326.25
2018-09-21T07:54:27.709Z,331.88
2018-09-21T07:55:27.674Z,337.50
2018-09-21T07:56:27.689Z,348.75
2018-09-21T07:57:27.668Z,360.00
2018-09-21T07:58:27.672Z,348.75
2018-09-21T07:59:29.589Z,331.88
2018-09-21T08:00:27.668Z,309.38
2018-09-21T08:01:27.665Z,309.38
2018-09-21T08:02:27.655Z,298.13
2018-09-21T08:03:27.653Z,286.88
2018-09-21T08:04:27.649Z,275.63
2018-09-21T08:05:27.649Z,270.00
2018-09-21T08:06:27.650Z,275.63
2018-09-21T08:07:27.649Z,286.88
2018-09-21T08:08:27.642Z,298.13
2018-09-21T08:09:27.636Z,309.38
2018-09-21T08:10:27.637Z,315.00
2018-09-21T08:11:27.638Z,315.00
2018-09-21T08:12:27.632Z,326.25
2018-09-21T08:13:27.634Z,343.13
2018-09-21T08:14:27.625Z,371.25
2018-09-21T08:15:27.623Z,410.63
2018-09-21T08:16:27.629Z,450.00
2018-09-21T08:17:27.620Z,489.38
2018-09-21T08:18:27.623Z,540.00
2018-09-21T08:19:27.643Z,590.63
2018-09-21T08:20:27.611Z,658.13
2018-09-21T08:21:27.612Z,731.25
2018-09-21T08:22:27.607Z,826.88
2018-09-21T08:23:27.600Z,900.00
2018-09-21T08:24:27.602Z,916.88
2018-09-21T08:25:27.594Z,950.63
2018-09-21T08:26:27.611Z,984.38
2018-09-21T08:27:27.591Z,978.75
2018-09-21T08:28:27.592Z,967.50
2018-09-21T08:29:27.592Z,939.38
2018-09-21T08:30:27.591Z,928.13
2018-09-21T08:31:27.597Z,933.75
2018-09-21T08:32:27.577Z,945.00
2018-09-21T08:33:27.577Z,916.88
2018-09-21T08:34:27.575Z,888.75
2018-09-21T08:35:27.572Z,810.00
2018-09-21T08:36:27.571Z,770.63
2018-09-21T08:37:27.564Z,753.75
2018-09-21T08:38:27.562Z,776.25
2018-09-21T08:39:27.557Z,759.38
2018-09-21T08:40:27.555Z,821.25
2018-09-21T08:41:27.556Z,849.38
2018-09-21T08:42:27.559Z,720.00
2018-09-21T08:43:27.551Z,545.63
2018-09-21T08:44:27.545Z,562.50
2018-09-21T08:45:27.604Z,551.25
2018-09-21T08:46:27.545Z,545.63
2018-09-21T08:47:27.541Z,601.88
2018-09-21T08:48:27.540Z,500.63
2018-09-21T08:49:27.540Z,421.88
2018-09-21T08:50:27.541Z,421.88
2018-09-21T08:51:27.571Z,427.50
2018-09-21T08:52:27.528Z,286.88
2018-09-21T08:53:27.526Z,196.88
2018-09-21T08:54:27.525Z,270.00
2018-09-21T08:55:27.524Z,405.00
2018-09-21T08:56:27.521Z,337.50
2018-09-21T08:57:27.521Z,388.13
2018-09-21T08:58:27.516Z,450.00
2018-09-21T08:59:27.511Z,393.75
2018-09-21T09:00:27.509Z,298.13
2018-09-21T09:01:27.507Z,208.13
2018-09-21T09:02:27.514Z,146.25
2018-09-21T09:03:27.601Z,112.50
2018-09-21T09:04:27.500Z,101.25
2018-09-21T09:05:27.504Z,101.25
2018-09-21T09:06:27.499Z,112.50
2018-09-21T09:07:27.494Z,84.38
2018-09-21T09:08:27.490Z,56.25
2018-09-21T09:09:27.485Z,56.25
2018-09-21T09:10:27.484Z,61.88
2018-09-21T09:11:27.485Z,67.50
2018-09-21T09:12:27.487Z,67.50
2018-09-21T09:13:27.482Z,78.75
2018-09-21T09:14:27.475Z,163.13
2018-09-21T09:15:27.470Z,236.25
2018-09-21T09:16:27.471Z,208.13
2018-09-21T09:17:27.464Z,163.13
2018-09-21T09:18:27.463Z,95.63
2018-09-21T09:19:27.458Z,67.50
2018-09-21T09:20:27.449Z,95.63
2018-09-21T09:21:27.447Z,140.63
2018-09-21T09:22:27.443Z,146.25
2018-09-21T09:23:27.439Z,174.38
2018-09-21T09:24:27.460Z,157.50
2018-09-21T09:25:27.434Z,101.25
2018-09-21T09:26:27.460Z,90.00
2018-09-21T09:27:27.422Z,157.50
2018-09-21T09:28:27.422Z,191.25
2018-09-21T09:29:27.419Z,163.13
2018-09-21T09:30:27.410Z,151.88
2018-09-21T09:31:27.403Z,163.13
2018-09-21T09:32:27.405Z,185.63
2018-09-21T09:33:27.401Z,208.13
2018-09-21T09:34:27.391Z,241.88
2018-09-21T09:35:27.390Z,275.63
2018-09-21T09:36:27.380Z,281.25
2018-09-21T09:37:27.374Z,281.25
2018-09-21T09:38:27.369Z,315.00
2018-09-21T09:39:27.367Z,371.25
2018-09-21T09:40:27.360Z,433.13
2018-09-21T09:41:27.355Z,444.38
2018-09-21T09:42:27.353Z,450.00
2018-09-21T09:43:27.394Z,506.25
2018-09-21T09:44:27.347Z,613.13
2018-09-21T09:45:27.335Z,686.25
2018-09-21T09:46:27.327Z,579.38
2018-09-21T09:47:27.321Z,478.13
2018-09-21T09:48:27.366Z,444.38
2018-09-21T09:49:27.324Z,455.63
2018-09-21T09:50:27.308Z,506.25
2018-09-21T09:51:27.303Z,500.63
2018-09-21T09:52:27.298Z,466.88
2018-09-21T09:53:27.288Z,433.13
2018-09-21T09:54:27.281Z,405.00
2018-09-21T09:55:27.288Z,337.50
2018-09-21T09:56:27.270Z,292.50
2018-09-21T09:57:27.267Z,270.00
2018-09-21T09:58:27.292Z,286.88
2018-09-21T09:59:27.258Z,326.25
2018-09-21T10:00:27.250Z,388.13
2018-09-21T10:01:27.245Z,410.63
2018-09-21T10:02:27.242Z,450.00
2018-09-21T10:03:27.294Z,495.00
2018-09-21T10:04:27.236Z,506.25
2018-09-21T10:05:27.219Z,483.75
2018-09-21T10:06:28.157Z,421.88
2018-09-21T10:07:27.217Z,382.50
2018-09-21T10:08:27.202Z,371.25
2018-09-21T10:09:27.197Z,382.50
2018-09-21T10:10:27.218Z,410.63
2018-09-21T10:11:27.187Z,427.50
2018-09-21T10:12:27.182Z,427.50
2018-09-21T10:13:27.173Z,388.13
2018-09-21T10:14:27.181Z,298.13
2018-09-21T10:15:27.162Z,371.25
2018-09-21T10:16:27.175Z,399.38
2018-09-21T10:17:27.152Z,416.25
2018-09-21T10:18:27.151Z,472.50
2018-09-21T10:19:27.141Z,500.63
2018-09-21T10:20:27.172Z,511.88
2018-09-21T10:21:27.128Z,545.63
2018-09-21T10:22:27.125Z,545.63
2018-09-21T10:23:27.117Z,540.00
2018-09-21T10:24:27.110Z,568.13
2018-09-21T10:25:27.105Z,562.50
2018-09-21T10:26:27.102Z,511.88
2018-09-21T10:27:27.186Z,478.13
2018-09-21T10:28:27.271Z,500.63
2018-09-21T10:29:27.091Z,517.50
2018-09-21T10:30:27.077Z,506.25
2018-09-21T10:31:27.069Z,489.38
2018-09-21T10:32:27.062Z,466.88
2018-09-21T10:33:27.143Z,450.00
2018-09-21T10:34:27.089Z,450.00
2018-09-21T10:35:27.126Z,461.25
2018-09-21T10:36:27.043Z,472.50
2018-09-21T10:37:27.039Z,478.13
2018-09-21T10:38:27.033Z,466.88
2018-09-21T10:39:27.028Z,489.38
2018-09-21T10:40:27.100Z,545.63
2018-09-21T10:41:27.017Z,596.25
2018-09-21T10:42:27.015Z,641.25
2018-09-21T10:43:27.005Z,652.50
2018-09-21T10:44:26.996Z,736.88
2018-09-21T10:45:26.993Z,888.75
2018-09-21T10:46:26.987Z,916.88
2018-09-21T10:47:26.986Z,871.88
2018-09-21T10:48:26.976Z,776.25
2018-09-21T10:49:26.973Z,731.25
2018-09-21T10:50:26.968Z,736.88
2018-09-21T10:51:26.960Z,725.63
2018-09-21T10:52:26.951Z,680.63
2018-09-21T10:53:26.949Z,607.50
2018-09-21T10:54:26.940Z,596.25
2018-09-21T10:55:26.960Z,675.00
2018-09-21T10:56:26.931Z,669.38
2018-09-21T10:57:26.924Z,613.13
2018-09-21T10:58:26.978Z,573.75
2018-09-21T10:59:26.932Z,534.38
2018-09-21T11:00:26.954Z,472.50
2018-09-21T11:01:26.901Z,427.50
2018-09-21T11:02:26.911Z,421.88
2018-09-21T11:03:26.894Z,489.38
2018-09-21T11:04:26.885Z,652.50
2018-09-21T11:05:26.883Z,939.38
2018-09-21T11:06:27.685Z,1153.13
2018-09-21T11:07:26.868Z,1265.63
2018-09-21T11:08:26.868Z,1215.00
2018-09-21T11:09:26.861Z,1057.50
2018-09-21T11:10:26.854Z,798.75
2018-09-21T11:11:26.855Z,652.50
2018-09-21T11:12:26.847Z,624.38
2018-09-21T11:13:26.843Z,675.00
2018-09-21T11:14:26.830Z,849.38
2018-09-21T11:15:26.843Z,860.63
2018-09-21T11:16:26.823Z,967.50
2018-09-21T11:17:26.813Z,1046.25
2018-09-21T11:18:26.811Z,1085.63
2018-09-21T11:19:26.805Z,1068.75
2018-09-21T11:20:26.814Z,1040.63
2018-09-21T11:21:26.791Z,961.88
2018-09-21T11:22:26.793Z,877.50
2018-09-21T11:23:26.786Z,821.25
2018-09-21T11:24:26.783Z,815.63
2018-09-21T11:25:26.772Z,821.25
2018-09-21T11:26:26.769Z,843.75
2018-09-21T11:27:26.759Z,838.13
2018-09-21T11:28:26.756Z,826.88
2018-09-21T11:29:26.764Z,781.88
2018-09-21T11:30:26.753Z,703.13
2018-09-21T11:31:26.745Z,646.88
2018-09-21T11:32:26.743Z,618.75
2018-09-21T11:33:26.734Z,607.50
2018-09-21T11:34:26.727Z,641.25
2018-09-21T11:35:26.722Z,658.13
2018-09-21T11:36:26.718Z,736.88
2018-09-21T11:37:26.714Z,843.75
2018-09-21T11:38:26.712Z,950.63
2018-09-21T11:39:26.704Z,939.38
2018-09-21T11:40:26.697Z,933.75
2018-09-21T11:41:26.693Z,916.88
2018-09-21T11:42:26.686Z,928.13
2018-09-21T11:43:26.681Z,894.38
2018-09-21T11:44:26.681Z,798.75
2018-09-21T11:45:26.673Z,838.13
2018-09-21T11:46:26.673Z,1158.75
2018-09-21T11:47:26.711Z,1530.00
2018-09-21T11:48:26.662Z,1338.75
2018-09-21T11:49:26.653Z,1288.13
2018-09-21T11:50:26.652Z,1485.00
2018-09-21T11:51:26.645Z,1462.50
2018-09-21T11:52:26.636Z,1355.63
2018-09-21T11:53:26.635Z,1226.25
2018-09-21T11:54:26.628Z,990.00
2018-09-21T11:55:26.628Z,843.75
2018-09-21T11:56:26.623Z,725.63
2018-09-21T11:57:26.617Z,579.38
2018-09-21T11:58:26.616Z,433.13
2018-09-21T11:59:26.609Z,506.25
2018-09-21T12:00:26.602Z,691.88
2018-09-21T12:01:26.601Z,748.13
2018-09-21T12:02:26.590Z,613.13
2018-09-21T12:03:26.593Z,371.25
2018-09-21T12:04:26.585Z,337.50
2018-09-21T12:05:26.581Z,275.63
2018-09-21T12:06:26.578Z,196.88
2018-09-21T12:07:26.570Z,151.88
2018-09-21T12:08:26.565Z,168.75
2018-09-21T12:09:26.558Z,174.38
2018-09-21T12:10:26.588Z,163.13
2018-09-21T12:11:26.553Z,286.88
2018-09-21T12:12:26.544Z,219.38
2018-09-21T12:13:26.544Z,303.75
2018-09-21T12:14:26.539Z,208.13
2018-09-21T12:15:26.529Z,129.38
2018-09-21T12:16:26.526Z,151.88
2018-09-21T12:17:26.522Z,455.63
2018-09-21T12:18:26.518Z,613.13
2018-09-21T12:19:26.512Z,742.50
2018-09-21T12:20:26.513Z,708.75
2018-09-21T12:21:26.504Z,585.00
2018-09-21T12:22:26.499Z,528.75
2018-09-21T12:23:26.493Z,506.25
2018-09-21T12:24:26.490Z,579.38
2018-09-21T12:25:26.484Z,551.25
2018-09-21T12:26:26.484Z,601.88
2018-09-21T12:27:26.476Z,725.63
2018-09-21T12:28:26.470Z,826.88
2018-09-21T12:29:26.463Z,877.50
2018-09-21T12:30:26.479Z,877.50
2018-09-21T12:31:26.454Z,838.13
2018-09-21T12:32:26.453Z,804.38
2018-09-21T12:33:26.449Z,810.00
2018-09-21T12:34:26.441Z,860.63
2018-09-21T12:35:26.441Z,911.25
2018-09-21T12:36:26.520Z,928.13
2018-09-21T12:37:26.426Z,916.88
2018-09-21T12:38:26.433Z,871.88
2018-09-21T12:39:26.418Z,843.75
2018-09-21T12:40:26.413Z,832.50
2018-09-21T12:41:26.409Z,826.88
2018-09-21T12:42:26.408Z,804.38
2018-09-21T12:43:26.393Z,815.63
2018-09-21T12:44:26.449Z,826.88
2018-09-21T12:45:26.399Z,821.25
2018-09-21T12:46:26.385Z,821.25
2018-09-21T12:47:26.383Z,810.00
2018-09-21T12:48:26.378Z,793.13
2018-09-21T12:49:26.371Z,810.00